Terminal Aerodrome Forecast
Issued by NWS

Home | Current Version | Previous Version | Text Only | Print | Product List | Glossary On
Versions: 1 2 3 4 5 6 7 8 9 10 11 12
000
FTUS46 KMFR 302329
TAFLMT
TAF
KLMT 302329Z 0100/0124 04015G24KT P6SM SCT060
     FM010300 36012KT P6SM SKC
     FM010900 35007KT P6SM SKC
     FM011600 02015KT P6SM SKC
     FM011900 14018G27KT P6SM SCT080=

USA.gov is the U.S. government's official web portal to all federal, state and local government web resources and services.